Time;durP1;ratioP1;P1;durP2;ratioP2;P2;SDS_P1;SDS_P2;PMS_P1;PMS_P2;Temp;Humidity;BMP_temperature;BMP_pressure;BME280_temperature;BME280_humidity;BME280_pressure;Samples;Min_cycle;Max_cycle;Signal;HPM_P1;HPM_P2
2021/06/26 00:00:50;;;;;;;46.47;24.85;;;18.60;99.90;;;;;;5108939;28;20430;-75
2021/06/26 00:03:17;;;;;;;47.45;24.67;;;18.60;99.90;;;;;;5105608;28;20441;-74
2021/06/26 00:05:44;;;;;;;48.55;25.25;;;18.70;99.90;;;;;;5108035;28;20426;-73
2021/06/26 00:08:13;;;;;;;44.03;24.90;;;18.70;99.90;;;;;;5105575;28;20431;-76
2021/06/26 00:10:40;;;;;;;50.63;26.27;;;18.70;99.90;;;;;;5105992;28;20439;-75
2021/06/26 00:13:07;;;;;;;48.42;26.25;;;18.70;99.90;;;;;;5106030;28;20420;-75
2021/06/26 00:15:34;;;;;;;48.33;26.20;;;18.70;99.90;;;;;;5108832;28;20765;-75
2021/06/26 00:18:01;;;;;;;46.78;26.38;;;18.80;99.90;;;;;;5107144;28;20468;-73
2021/06/26 00:20:28;;;;;;;45.70;26.08;;;18.80;99.90;;;;;;5108455;28;20419;-74
2021/06/26 00:22:55;;;;;;;42.83;25.57;;;18.80;99.90;;;;;;5105186;28;20428;-75
2021/06/26 00:25:25;;;;;;;43.45;25.20;;;18.80;99.90;;;;;;5108863;28;20412;-74
2021/06/26 00:27:52;;;;;;;45.15;26.08;;;18.80;99.90;;;;;;5106121;28;21260;-77
2021/06/26 00:30:19;;;;;;;40.08;25.52;;;18.80;99.90;;;;;;5109041;28;20430;-76
2021/06/26 00:32:46;;;;;;;46.08;26.27;;;18.80;99.90;;;;;;5106398;28;20420;-74
2021/06/26 00:35:14;;;;;;;46.40;26.40;;;18.80;99.90;;;;;;5107814;28;20416;-74
2021/06/26 00:37:42;;;;;;;42.65;25.45;;;18.80;99.90;;;;;;5105724;28;20432;-74
2021/06/26 00:40:11;;;;;;;45.27;25.90;;;18.80;99.90;;;;;;5109287;28;20879;-74
2021/06/26 00:42:41;;;;;;;47.58;26.80;;;18.90;99.90;;;;;;5105874;28;20428;-74
2021/06/26 00:45:11;;;;;;;40.33;24.80;;;18.80;99.90;;;;;;5106255;28;20440;-75
2021/06/26 00:47:39;;;;;;;44.78;25.55;;;18.90;99.90;;;;;;5104204;28;20424;-75
2021/06/26 00:50:07;;;;;;;45.53;26.75;;;18.80;99.90;;;;;;5106862;28;20423;-74
2021/06/26 00:52:34;;;;;;;42.67;25.25;;;18.90;99.90;;;;;;5106288;28;20411;-74
2021/06/26 00:55:01;;;;;;;47.92;26.70;;;18.90;99.90;;;;;;5108139;28;21144;-75
2021/06/26 00:57:30;;;;;;;46.50;26.73;;;18.90;99.90;;;;;;5106709;28;20765;-73
2021/06/26 00:59:58;;;;;;;46.63;27.13;;;18.90;99.90;;;;;;5108973;28;20420;-72
2021/06/26 01:02:25;;;;;;;46.42;27.17;;;18.90;99.90;;;;;;5107303;28;20424;-75
2021/06/26 01:04:52;;;;;;;45.53;26.77;;;18.90;99.90;;;;;;5104865;28;20424;-73
2021/06/26 01:07:19;;;;;;;48.72;28.02;;;18.90;99.90;;;;;;5106968;28;20422;-74
2021/06/26 01:09:46;;;;;;;47.00;26.85;;;18.90;99.90;;;;;;5107869;28;20430;-75
2021/06/26 01:12:13;;;;;;;48.28;28.05;;;18.90;99.90;;;;;;5105591;28;20515;-73
2021/06/26 01:14:40;;;;;;;48.33;27.65;;;18.90;99.90;;;;;;5107918;28;20431;-75
2021/06/26 01:17:09;;;;;;;44.87;26.13;;;18.90;99.90;;;;;;5104393;28;20494;-76
2021/06/26 01:19:37;;;;;;;45.75;26.83;;;18.90;99.90;;;;;;5108470;28;20420;-73
2021/06/26 01:22:06;;;;;;;45.13;26.77;;;18.90;99.90;;;;;;5110592;28;20416;-75
2021/06/26 01:24:35;;;;;;;50.42;27.98;;;18.90;99.90;;;;;;5112105;28;20415;-74
2021/06/26 01:27:03;;;;;;;49.30;27.30;;;18.90;99.90;;;;;;5110115;28;20427;-74
2021/06/26 01:29:30;;;;;;;42.90;26.20;;;18.90;99.90;;;;;;5112224;28;20435;-75
2021/06/26 01:31:57;;;;;;;44.23;26.27;;;18.90;99.90;;;;;;5108730;28;20412;-73
2021/06/26 01:34:24;;;;;;;46.60;26.05;;;18.90;99.90;;;;;;5112342;28;20416;-76
2021/06/26 01:36:52;;;;;;;46.72;26.67;;;18.90;99.90;;;;;;5105246;27;20473;-75
2021/06/26 01:39:19;;;;;;;44.10;26.05;;;18.90;99.90;;;;;;5112288;28;20994;-76
2021/06/26 01:41:47;;;;;;;44.58;26.45;;;18.90;99.90;;;;;;5110384;28;20432;-74
2021/06/26 01:44:14;;;;;;;48.00;27.83;;;18.90;99.90;;;;;;5112273;28;20884;-72
2021/06/26 01:46:41;;;;;;;44.72;25.85;;;18.90;99.90;;;;;;5107551;28;20923;-76
2021/06/26 01:49:10;;;;;;;46.88;26.20;;;19.00;99.90;;;;;;5110819;28;20428;-74
2021/06/26 01:51:37;;;;;;;41.40;25.10;;;19.00;99.90;;;;;;5110809;28;20455;-73
2021/06/26 01:54:04;;;;;;;43.83;25.52;;;19.00;99.90;;;;;;5111777;28;20416;-75
2021/06/26 01:56:31;;;;;;;44.70;26.07;;;19.00;99.90;;;;;;5110241;28;20416;-72
2021/06/26 01:59:00;;;;;;;43.88;25.58;;;19.00;99.90;;;;;;5111600;28;20419;-73
2021/06/26 02:01:27;;;;;;;43.70;25.03;;;19.00;99.90;;;;;;5108775;28;20424;-72
2021/06/26 02:03:54;;;;;;;48.38;26.05;;;19.00;99.90;;;;;;5110037;28;20422;-75
2021/06/26 02:06:21;;;;;;;43.40;25.35;;;19.00;99.90;;;;;;5107675;28;20749;-73
2021/06/26 02:08:48;;;;;;;45.55;25.48;;;19.00;99.90;;;;;;5111994;28;20468;-74
2021/06/26 02:11:15;;;;;;;47.42;25.20;;;19.00;99.90;;;;;;5108747;28;20416;-71
2021/06/26 02:13:42;;;;;;;45.83;25.50;;;19.00;99.90;;;;;;5111356;28;20415;-75
2021/06/26 02:16:11;;;;;;;40.53;24.30;;;19.10;99.90;;;;;;5109808;28;20427;-73
2021/06/26 02:18:38;;;;;;;45.13;25.10;;;19.10;99.90;;;;;;5109404;28;20876;-72
2021/06/26 02:21:05;;;;;;;42.85;24.55;;;19.00;99.90;;;;;;5106474;28;20417;-74
2021/06/26 02:23:33;;;;;;;43.63;24.63;;;19.10;99.90;;;;;;5110807;28;20420;-74
2021/06/26 02:26:00;;;;;;;45.95;24.85;;;19.00;99.90;;;;;;5107077;28;20435;-73
2021/06/26 02:28:27;;;;;;;43.65;24.42;;;19.00;99.90;;;;;;5110301;28;20423;-73
2021/06/26 02:30:54;;;;;;;44.92;25.20;;;19.00;99.90;;;;;;5108747;28;20426;-73
2021/06/26 02:33:22;;;;;;;42.47;24.55;;;19.00;99.90;;;;;;5109356;28;20412;-74
2021/06/26 02:35:49;;;;;;;48.30;25.15;;;19.00;99.90;;;;;;5108561;28;20419;-77
2021/06/26 02:38:16;;;;;;;46.47;24.58;;;19.00;99.90;;;;;;5110078;28;20893;-77
2021/06/26 02:40:43;;;;;;;45.00;24.85;;;19.00;99.90;;;;;;5109344;28;20416;-76
2021/06/26 02:43:10;;;;;;;46.05;24.67;;;19.00;99.90;;;;;;5110403;28;20922;-74
2021/06/26 02:45:36;;;;;;;49.67;25.92;;;19.00;99.90;;;;;;5109399;28;20423;-73
2021/06/26 02:48:04;;;;;;;47.10;25.17;;;19.00;99.90;;;;;;5110855;28;20880;-74
2021/06/26 02:50:32;;;;;;;51.50;26.60;;;19.00;99.90;;;;;;5107950;28;20438;-74
2021/06/26 02:52:59;;;;;;;50.20;25.60;;;19.00;99.90;;;;;;5109570;28;20400;-74
2021/06/26 02:55:26;;;;;;;45.70;24.83;;;19.10;99.90;;;;;;5106872;28;20420;-73
2021/06/26 02:57:53;;;;;;;48.00;25.03;;;19.10;99.90;;;;;;5109482;28;20899;-73
2021/06/26 03:00:21;;;;;;;47.58;25.77;;;19.10;99.90;;;;;;5108278;28;20420;-72
2021/06/26 03:02:48;;;;;;;47.85;26.50;;;19.10;99.90;;;;;;5108018;28;20435;-74
2021/06/26 03:05:15;;;;;;;47.72;26.83;;;19.10;99.90;;;;;;5106411;28;20416;-75
2021/06/26 03:07:50;;;;;;;51.97;27.35;;;19.10;99.90;;;;;;5110603;28;20876;-74
2021/06/26 03:10:17;;;;;;;52.35;27.80;;;19.10;99.90;;;;;;5105650;28;20420;-73
2021/06/26 03:12:44;;;;;;;52.92;27.90;;;19.10;99.90;;;;;;5108786;28;20909;-73
2021/06/26 03:15:12;;;;;;;50.00;27.35;;;19.10;99.90;;;;;;5107852;28;20420;-77
2021/06/26 03:17:39;;;;;;;51.67;27.80;;;19.10;99.90;;;;;;5107312;28;20431;-75
2021/06/26 03:20:08;;;;;;;50.15;28.30;;;19.10;99.90;;;;;;5108232;28;20427;-74
2021/06/26 03:22:35;;;;;;;52.67;28.83;;;19.10;99.90;;;;;;5110186;27;20810;-72
2021/06/26 03:25:03;;;;;;;54.15;29.15;;;19.10;99.90;;;;;;5106001;28;20504;-74
2021/06/26 03:27:30;;;;;;;56.13;29.40;;;19.10;99.90;;;;;;5104847;28;20427;-75
2021/06/26 03:29:57;;;;;;;59.50;29.67;;;19.10;99.90;;;;;;5108419;28;20788;-72
2021/06/26 03:32:27;;;;;;;52.15;29.08;;;19.10;99.90;;;;;;5110836;27;20899;-75
2021/06/26 03:34:54;;;;;;;61.65;30.40;;;19.10;99.90;;;;;;5106034;28;20435;-74
2021/06/26 03:37:21;;;;;;;57.45;31.52;;;19.10;99.90;;;;;;5110605;28;20408;-73
2021/06/26 03:39:48;;;;;;;58.33;31.17;;;19.20;99.90;;;;;;5106380;28;20420;-74
2021/06/26 03:42:16;;;;;;;58.17;32.38;;;19.20;99.90;;;;;;5107863;28;20930;-76
2021/06/26 03:44:43;;;;;;;60.13;32.78;;;19.20;99.90;;;;;;5108833;27;20960;-74
2021/06/26 03:47:10;;;;;;;61.73;32.73;;;19.20;99.90;;;;;;5105534;27;20424;-73
2021/06/26 03:49:38;;;;;;;63.33;33.65;;;19.20;99.90;;;;;;5107838;28;20427;-73
2021/06/26 03:52:06;;;;;;;65.55;34.58;;;19.20;99.90;;;;;;5107671;28;20523;-73
2021/06/26 03:54:34;;;;;;;66.50;34.42;;;19.20;99.90;;;;;;5106972;28;20424;-73
2021/06/26 03:57:01;;;;;;;65.40;33.60;;;19.20;99.90;;;;;;5108684;28;20412;-74
2021/06/26 03:59:29;;;;;;;66.25;34.90;;;19.20;99.90;;;;;;5105599;28;20427;-75
2021/06/26 04:01:56;;;;;;;61.33;33.55;;;19.20;99.90;;;;;;5104548;28;20420;-73
2021/06/26 04:04:23;;;;;;;64.72;33.72;;;19.20;99.90;;;;;;5106614;28;20420;-71
2021/06/26 04:06:51;;;;;;;59.17;32.30;;;19.20;99.90;;;;;;5108754;28;20408;-74
2021/06/26 04:09:17;;;;;;;64.03;33.92;;;19.20;99.90;;;;;;5106578;28;20450;-72
2021/06/26 04:11:44;;;;;;;64.55;34.25;;;19.20;99.90;;;;;;5108548;28;20423;-70
2021/06/26 04:14:11;;;;;;;66.18;33.97;;;19.20;99.90;;;;;;5106877;28;20426;-72
2021/06/26 04:16:39;;;;;;;65.50;32.70;;;19.20;99.90;;;;;;5107647;28;20443;-75
2021/06/26 04:19:06;;;;;;;64.60;34.17;;;19.20;99.90;;;;;;5107217;28;20896;-73
2021/06/26 04:21:33;;;;;;;67.07;33.83;;;19.20;99.90;;;;;;5108881;28;20515;-76
2021/06/26 04:24:00;;;;;;;64.43;33.30;;;19.20;99.90;;;;;;5107446;28;20427;-73
2021/06/26 04:26:27;;;;;;;70.53;35.08;;;19.20;99.90;;;;;;5105450;28;20420;-71
2021/06/26 04:28:54;;;;;;;67.93;34.17;;;19.20;99.90;;;;;;5106073;28;20431;-73
2021/06/26 04:31:21;;;;;;;71.72;33.88;;;19.20;99.90;;;;;;5106857;28;20777;-70
2021/06/26 04:33:50;;;;;;;76.95;35.05;;;19.20;99.90;;;;;;5103242;28;20415;-74
2021/06/26 04:36:17;;;;;;;66.53;34.07;;;19.20;99.90;;;;;;5102563;28;20424;-71
2021/06/26 04:38:44;;;;;;;66.53;33.80;;;19.20;99.90;;;;;;5104002;28;20460;-74
2021/06/26 04:41:12;;;;;;;67.83;33.83;;;19.20;99.90;;;;;;5107339;28;20749;-73
2021/06/26 04:43:39;;;;;;;68.85;33.97;;;19.20;99.90;;;;;;5105962;28;20984;-72
2021/06/26 04:46:09;;;;;;;70.38;33.72;;;19.20;99.90;;;;;;5107599;28;20427;-72
2021/06/26 04:48:36;;;;;;;64.47;34.65;;;19.20;99.90;;;;;;5105615;28;20428;-74
2021/06/26 04:51:05;;;;;;;69.25;34.67;;;19.20;99.90;;;;;;5105890;28;20910;-73
2021/06/26 04:53:32;;;;;;;70.35;35.22;;;19.30;99.90;;;;;;5105326;28;20788;-73
2021/06/26 04:55:59;;;;;;;70.78;35.78;;;19.30;99.90;;;;;;5106082;28;20436;-72
2021/06/26 04:58:27;;;;;;;71.82;35.58;;;19.30;99.90;;;;;;5103639;28;20439;-73
2021/06/26 05:00:57;;;;;;;67.82;35.13;;;19.20;99.90;;;;;;5108490;28;20431;-71
2021/06/26 05:03:24;;;;;;;68.53;35.15;;;19.30;99.90;;;;;;5107467;28;20465;-72
2021/06/26 05:05:52;;;;;;;66.68;34.83;;;19.30;99.90;;;;;;5108151;28;20451;-71
2021/06/26 05:08:20;;;;;;;63.30;34.28;;;19.20;99.90;;;;;;5107369;28;20416;-70
2021/06/26 05:10:48;;;;;;;67.68;35.60;;;19.30;99.90;;;;;;5102659;28;20423;-72
2021/06/26 05:13:15;;;;;;;64.63;34.90;;;19.30;99.90;;;;;;5100741;28;20423;-72
2021/06/26 05:15:42;;;;;;;60.57;34.00;;;19.30;99.90;;;;;;5106780;28;20908;-72
2021/06/26 05:18:10;;;;;;;69.57;36.00;;;19.30;99.90;;;;;;5107285;28;20435;-72
2021/06/26 05:20:37;;;;;;;68.88;36.13;;;19.40;99.90;;;;;;5108204;28;21011;-72
2021/06/26 05:23:12;;;;;;;66.68;35.45;;;19.40;99.90;;;;;;5106183;28;20804;-71
2021/06/26 05:25:40;;;;;;;68.63;36.63;;;19.40;99.90;;;;;;5108542;28;20731;-73
2021/06/26 05:28:07;;;;;;;69.55;37.80;;;19.40;99.90;;;;;;5106438;28;20416;-72
2021/06/26 05:30:34;;;;;;;67.95;36.78;;;19.40;99.90;;;;;;5103267;28;20430;-72
2021/06/26 05:33:01;;;;;;;67.30;35.95;;;19.40;99.90;;;;;;5099276;28;20527;-70
2021/06/26 05:35:28;;;;;;;73.67;38.10;;;19.40;99.90;;;;;;5106653;28;20980;-74
2021/06/26 05:37:55;;;;;;;70.20;37.38;;;19.40;99.90;;;;;;5103013;28;20430;-73
2021/06/26 05:40:22;;;;;;;68.35;37.88;;;19.50;99.90;;;;;;5106545;28;20449;-75
2021/06/26 05:42:51;;;;;;;72.95;38.10;;;19.40;99.90;;;;;;5103122;28;20427;-74
2021/06/26 05:45:18;;;;;;;71.13;38.38;;;19.50;99.90;;;;;;5105297;28;20448;-71
2021/06/26 05:47:45;;;;;;;70.55;39.28;;;19.40;99.90;;;;;;5102627;28;20454;-71
2021/06/26 05:50:12;;;;;;;70.70;38.63;;;19.50;99.90;;;;;;5109833;28;20408;-73
2021/06/26 05:52:46;;;;;;;71.18;39.47;;;19.50;99.90;;;;;;5105342;28;20425;-72
2021/06/26 05:55:14;;;;;;;70.60;39.37;;;19.50;99.90;;;;;;5111070;28;20796;-71
2021/06/26 05:57:41;;;;;;;70.88;40.38;;;19.50;99.90;;;;;;5108417;28;20428;-73
2021/06/26 06:00:11;;;;;;;75.28;41.95;;;19.50;99.90;;;;;;5110371;28;20416;-73
2021/06/26 06:02:41;;;;;;;74.40;41.92;;;19.50;99.90;;;;;;5105281;28;20501;-71
2021/06/26 06:05:08;;;;;;;68.50;41.20;;;19.50;99.90;;;;;;5106827;28;20424;-70
2021/06/26 06:07:36;;;;;;;74.45;41.75;;;19.50;99.90;;;;;;5107849;28;20458;-70
2021/06/26 06:10:03;;;;;;;76.50;43.35;;;19.50;99.90;;;;;;5109600;28;20428;-71
2021/06/26 06:12:32;;;;;;;77.07;43.53;;;19.60;99.90;;;;;;5107215;28;21347;-73
2021/06/26 06:14:59;;;;;;;73.93;42.67;;;19.60;99.90;;;;;;5107641;28;20411;-71
2021/06/26 06:17:27;;;;;;;72.78;42.15;;;19.50;99.90;;;;;;5109229;28;20447;-74
2021/06/26 06:19:54;;;;;;;71.85;41.80;;;19.50;99.90;;;;;;5108518;28;20768;-73
2021/06/26 06:22:21;;;;;;;78.03;42.83;;;19.60;99.90;;;;;;5109527;28;20420;-73
2021/06/26 06:24:48;;;;;;;72.57;42.08;;;19.60;99.90;;;;;;5112156;28;20428;-73
2021/06/26 06:27:15;;;;;;;70.88;41.15;;;19.60;99.90;;;;;;5111104;28;20879;-72
2021/06/26 06:29:42;;;;;;;71.03;42.55;;;19.60;99.90;;;;;;5110003;28;21037;-71
2021/06/26 06:32:09;;;;;;;66.95;41.60;;;19.70;99.90;;;;;;5109098;28;20415;-73
2021/06/26 06:34:37;;;;;;;71.18;42.22;;;19.70;99.90;;;;;;5108778;28;20426;-74
2021/06/26 06:37:04;;;;;;;73.15;42.80;;;19.70;99.90;;;;;;5110188;28;20432;-75
2021/06/26 06:39:31;;;;;;;71.65;42.28;;;19.70;99.90;;;;;;5111220;28;20435;-73
2021/06/26 06:41:58;;;;;;;69.85;42.13;;;19.80;99.90;;;;;;5105270;28;20419;-75
2021/06/26 06:44:25;;;;;;;71.45;45.17;;;19.80;99.90;;;;;;5105507;28;22926;-73
2021/06/26 06:46:52;;;;;;;66.30;41.58;;;19.90;99.90;;;;;;5106248;28;20788;-74
2021/06/26 06:49:19;;;;;;;63.63;39.97;;;19.90;99.90;;;;;;5106722;28;20429;-71
2021/06/26 06:51:47;;;;;;;60.85;39.78;;;20.00;99.90;;;;;;5108048;28;20438;-73
2021/06/26 06:54:14;;;;;;;65.07;40.95;;;20.00;99.90;;;;;;5108881;27;20416;-73
2021/06/26 06:56:41;;;;;;;67.40;41.40;;;20.00;99.90;;;;;;5108639;28;20424;-72
2021/06/26 06:59:08;;;;;;;67.20;41.70;;;20.10;99.90;;;;;;5107914;28;20928;-73
2021/06/26 07:01:35;;;;;;;63.47;41.78;;;20.10;99.90;;;;;;5110270;28;20428;-70
2021/06/26 07:04:01;;;;;;;66.57;42.07;;;20.10;99.90;;;;;;5108573;28;20435;-73
2021/06/26 07:06:31;;;;;;;66.88;41.22;;;20.10;99.90;;;;;;5110700;27;20412;-70
2021/06/26 07:08:59;;;;;;;64.43;40.50;;;20.20;99.90;;;;;;5105601;28;20424;-73
2021/06/26 07:11:27;;;;;;;62.65;40.95;;;20.20;99.90;;;;;;5110730;28;20407;-72
2021/06/26 07:13:54;;;;;;;64.35;41.72;;;20.30;99.90;;;;;;5105820;28;20466;-74
2021/06/26 07:16:21;;;;;;;60.05;40.40;;;20.30;99.90;;;;;;5110158;28;20411;-72
2021/06/26 07:18:47;;;;;;;59.22;40.10;;;20.30;99.90;;;;;;5106959;28;21050;-73
2021/06/26 07:21:14;;;;;;;60.38;40.42;;;20.40;99.90;;;;;;5107360;28;20424;-73
2021/06/26 07:23:41;;;;;;;59.65;39.28;;;20.40;99.90;;;;;;5107842;28;20501;-73
2021/06/26 07:26:09;;;;;;;55.88;38.22;;;20.50;99.90;;;;;;5110734;28;20741;-74
2021/06/26 07:28:36;;;;;;;56.10;37.90;;;20.50;99.90;;;;;;5102887;28;20424;-74
2021/06/26 07:31:03;;;;;;;56.78;37.22;;;20.60;99.90;;;;;;5107980;28;20436;-73
2021/06/26 07:33:30;;;;;;;53.88;36.70;;;20.60;99.90;;;;;;5105924;28;20423;-71
2021/06/26 07:35:57;;;;;;;54.58;38.45;;;20.70;99.90;;;;;;5106696;28;20503;-70
2021/06/26 07:38:24;;;;;;;49.30;33.17;;;20.80;99.90;;;;;;5102724;28;20938;-74
2021/06/26 07:40:52;;;;;;;47.15;32.88;;;20.80;99.90;;;;;;5106649;28;20891;-71
2021/06/26 07:43:20;;;;;;;47.35;31.65;;;20.90;99.90;;;;;;5104792;28;20428;-73
2021/06/26 07:45:47;;;;;;;41.80;29.65;;;21.00;99.90;;;;;;5109320;28;20428;-69
2021/06/26 07:48:13;;;;;;;39.25;28.50;;;21.00;99.90;;;;;;5108217;28;20423;-72
2021/06/26 07:50:40;;;;;;;39.23;29.00;;;21.10;99.90;;;;;;5108511;28;20784;-69
2021/06/26 07:53:07;;;;;;;39.75;28.70;;;21.20;99.90;;;;;;5106482;28;20424;-73
2021/06/26 07:55:34;;;;;;;36.37;26.07;;;21.30;99.90;;;;;;5110219;28;20408;-69
2021/06/26 07:58:01;;;;;;;38.20;27.65;;;21.40;99.90;;;;;;5104113;28;20423;-71
2021/06/26 08:00:29;;;;;;;38.47;27.65;;;21.40;99.90;;;;;;5109950;28;20416;-70
2021/06/26 08:02:56;;;;;;;35.47;26.52;;;21.50;99.90;;;;;;5105482;28;20456;-72
2021/06/26 08:05:23;;;;;;;35.42;27.23;;;21.60;99.90;;;;;;5108829;28;20478;-70
2021/06/26 08:07:50;;;;;;;31.35;23.85;;;21.70;99.90;;;;;;5108170;28;20426;-68
2021/06/26 08:10:17;;;;;;;30.65;23.52;;;21.70;99.90;;;;;;5106207;28;20424;-71
2021/06/26 08:12:44;;;;;;;33.08;24.58;;;21.70;99.90;;;;;;5106530;28;20431;-73
2021/06/26 08:15:12;;;;;;;31.20;23.58;;;21.80;99.90;;;;;;5106709;28;20427;-70
2021/06/26 08:17:40;;;;;;;30.75;23.33;;;21.80;99.90;;;;;;5106771;28;20539;-70
2021/06/26 08:20:08;;;;;;;32.40;23.93;;;21.80;99.90;;;;;;5106776;28;20497;-71
2021/06/26 08:22:35;;;;;;;27.80;21.85;;;21.80;99.90;;;;;;5104599;28;20432;-74
2021/06/26 08:25:02;;;;;;;26.05;20.60;;;21.80;99.90;;;;;;5108384;28;20451;-72
2021/06/26 08:27:29;;;;;;;28.38;21.48;;;21.80;99.90;;;;;;5105531;28;20423;-71
2021/06/26 08:29:56;;;;;;;27.83;21.67;;;21.90;99.90;;;;;;5107931;28;20860;-73
2021/06/26 08:32:22;;;;;;;31.23;22.85;;;21.90;99.90;;;;;;5101553;28;20449;-72
2021/06/26 08:34:51;;;;;;;29.70;21.95;;;21.90;99.90;;;;;;5106443;28;20768;-71
2021/06/26 08:37:18;;;;;;;27.90;21.67;;;21.90;99.90;;;;;;5105865;28;20903;-74
2021/06/26 08:39:45;;;;;;;29.67;20.45;;;21.90;99.90;;;;;;5107053;28;20882;-74
2021/06/26 08:42:13;;;;;;;27.57;20.47;;;21.90;99.90;;;;;;5105066;28;20903;-73
2021/06/26 08:44:42;;;;;;;27.60;21.25;;;21.90;99.90;;;;;;5103000;28;20501;-73
2021/06/26 08:47:10;;;;;;;25.67;20.27;;;22.00;99.90;;;;;;5102435;28;20497;-71
2021/06/26 08:49:36;;;;;;;30.67;23.15;;;22.00;99.90;;;;;;5107323;28;20428;-74
2021/06/26 08:52:05;;;;;;;32.30;22.98;;;22.00;99.90;;;;;;5106371;28;20412;-72
2021/06/26 08:54:32;;;;;;;30.92;22.40;;;22.10;99.90;;;;;;5108392;28;20411;-74
2021/06/26 08:56:59;;;;;;;31.00;21.73;;;22.10;99.90;;;;;;5104733;28;20453;-74
2021/06/26 08:59:26;;;;;;;28.42;21.58;;;22.10;99.90;;;;;;5107998;28;20934;-74
2021/06/26 09:01:53;;;;;;;28.95;21.40;;;22.20;99.90;;;;;;5106526;28;20437;-73
2021/06/26 09:04:21;;;;;;;28.55;21.48;;;22.30;99.90;;;;;;5105630;28;20443;-73
2021/06/26 09:06:52;;;;;;;29.65;22.13;;;22.40;99.90;;;;;;5107741;28;20424;-73
2021/06/26 09:09:34;;;;;;;28.33;20.73;;;22.50;99.90;;;;;;5109609;28;20462;-73
2021/06/26 09:12:04;;;;;;;28.52;20.75;;;22.60;99.80;;;;;;5107062;28;20416;-73
2021/06/26 09:14:31;;;;;;;27.33;20.20;;;22.70;99.10;;;;;;5109194;28;20412;-71
2021/06/26 09:16:58;;;;;;;26.83;19.58;;;22.70;98.40;;;;;;5106658;28;20412;-73
2021/06/26 09:19:25;;;;;;;25.75;19.30;;;22.70;98.40;;;;;;5109160;28;20408;-73
2021/06/26 09:22:00;;;;;;;23.70;18.90;;;22.80;98.40;;;;;;5105961;28;20411;-72
2021/06/26 09:24:40;;;;;;;24.50;19.15;;;22.90;98.80;;;;;;5105657;28;20845;-75
2021/06/26 09:27:07;;;;;;;22.70;16.57;;;23.00;98.40;;;;;;5107006;28;20481;-72
2021/06/26 09:29:34;;;;;;;21.83;15.75;;;23.00;97.80;;;;;;5107827;28;20415;-71
2021/06/26 09:32:06;;;;;;;21.25;14.90;;;23.10;97.60;;;;;;5106777;28;20416;-73
2021/06/26 09:34:41;;;;;;;20.55;16.10;;;23.20;95.90;;;;;;5106383;28;20465;-71
2021/06/26 09:37:10;;;;;;;22.70;16.10;;;23.30;96.20;;;;;;5108047;28;20412;-72
2021/06/26 09:39:40;;;;;;;20.90;15.70;;;23.30;96.70;;;;;;5109173;28;20404;-73
2021/06/26 09:42:18;;;;;;;22.27;15.40;;;23.40;96.80;;;;;;5109590;28;20998;-72
2021/06/26 09:44:49;;;;;;;21.37;16.50;;;23.40;96.20;;;;;;5108733;28;20435;-72
2021/06/26 09:47:26;;;;;;;20.00;15.82;;;23.50;94.30;;;;;;5111484;28;20507;-73
2021/06/26 09:49:53;;;;;;;20.48;15.50;;;23.50;93.70;;;;;;5111584;28;20420;-72
2021/06/26 09:52:20;;;;;;;20.67;16.17;;;23.60;95.10;;;;;;5109000;28;20419;-75
2021/06/26 09:54:49;;;;;;;21.35;15.40;;;23.70;94.30;;;;;;5112017;28;20461;-71
2021/06/26 09:57:16;;;;;;;19.15;15.88;;;23.80;93.90;;;;;;5109644;28;20464;-74
2021/06/26 09:59:44;;;;;;;20.83;15.70;;;23.90;93.70;;;;;;5109607;28;20428;-73
2021/06/26 10:02:20;;;;;;;19.38;15.38;;;24.00;93.60;;;;;;5111061;28;20859;-73
2021/06/26 10:04:47;;;;;;;22.42;16.13;;;24.10;92.80;;;;;;5109440;27;20424;-73
2021/06/26 10:07:14;;;;;;;20.13;15.52;;;24.10;92.50;;;;;;5109858;28;20431;-74
2021/06/26 10:09:41;;;;;;;20.50;16.17;;;24.20;92.40;;;;;;5110815;28;20413;-73
2021/06/26 10:12:11;;;;;;;17.38;14.65;;;24.20;92.50;;;;;;5109865;28;20423;-72
2021/06/26 10:14:41;;;;;;;20.40;15.55;;;24.30;92.40;;;;;;5111420;28;20879;-73
2021/06/26 10:17:09;;;;;;;23.27;15.18;;;24.30;92.10;;;;;;5108809;28;20420;-74
2021/06/26 10:19:37;;;;;;;26.10;16.58;;;24.40;92.30;;;;;;5108908;28;20440;-73
2021/06/26 10:22:05;;;;;;;20.48;16.70;;;24.50;91.80;;;;;;5109713;28;20426;-71
2021/06/26 10:24:32;;;;;;;23.42;18.05;;;24.50;91.10;;;;;;5111719;28;20436;-76
2021/06/26 10:26:59;;;;;;;21.77;17.17;;;24.60;91.20;;;;;;5108299;28;20419;-71
2021/06/26 10:29:33;;;;;;;24.85;17.75;;;24.70;90.40;;;;;;5110563;28;20415;-72
2021/06/26 10:32:09;;;;;;;21.55;16.80;;;24.70;90.60;;;;;;5107869;28;20515;-74
2021/06/26 10:34:43;;;;;;;22.92;16.95;;;24.70;90.60;;;;;;5111166;28;20451;-72
2021/06/26 10:37:23;;;;;;;21.45;16.75;;;24.70;90.70;;;;;;5109039;28;20432;-72
2021/06/26 10:40:02;;;;;;;20.80;15.93;;;24.80;90.60;;;;;;5126499;27;20436;-73
2021/06/26 10:42:33;;;;;;;22.05;16.50;;;24.80;90.70;;;;;;5108409;27;20428;-71
2021/06/26 10:45:01;;;;;;;23.13;17.75;;;24.90;90.50;;;;;;5109959;28;20439;-73
2021/06/26 10:47:36;;;;;;;21.45;16.23;;;24.90;90.40;;;;;;5107342;28;20800;-72
2021/06/26 10:50:11;;;;;;;24.60;18.00;;;25.00;90.40;;;;;;5111570;28;20416;-72
2021/06/26 10:52:48;;;;;;;24.73;19.20;;;25.10;88.60;;;;;;5106694;28;22175;-72
2021/06/26 10:55:27;;;;;;;25.17;19.77;;;25.20;87.30;;;;;;5110060;28;20447;-73
2021/06/26 10:57:54;;;;;;;24.08;19.05;;;25.20;87.80;;;;;;5107456;28;20507;-75
2021/06/26 11:00:33;;;;;;;22.60;18.93;;;25.20;87.30;;;;;;5111090;28;20970;-74
2021/06/26 11:03:00;;;;;;;27.50;19.92;;;25.20;87.80;;;;;;5106237;28;20885;-75
2021/06/26 11:05:29;;;;;;;20.65;16.38;;;25.20;85.90;;;;;;5108196;28;20425;-69
2021/06/26 11:07:56;;;;;;;29.00;19.77;;;25.20;87.20;;;;;;5107384;28;20442;-71
2021/06/26 11:10:24;;;;;;;23.05;18.15;;;25.20;87.90;;;;;;5110762;28;20426;-72
2021/06/26 11:12:51;;;;;;;24.35;17.98;;;25.20;86.60;;;;;;5107969;28;20880;-70
2021/06/26 11:15:28;;;;;;;25.42;19.58;;;25.30;86.00;;;;;;5108855;28;20430;-71
2021/06/26 11:17:58;;;;;;;22.73;19.40;;;25.40;85.00;;;;;;5108959;28;20424;-70
2021/06/26 11:20:26;;;;;;;23.07;18.33;;;25.50;85.30;;;;;;5109817;28;20415;-70
2021/06/26 11:22:54;;;;;;;24.23;18.13;;;25.60;84.30;;;;;;5108116;28;20888;-70
2021/06/26 11:25:22;;;;;;;26.73;19.67;;;25.70;84.50;;;;;;5109762;28;20891;-72
2021/06/26 11:28:00;;;;;;;25.63;20.70;;;25.80;82.30;;;;;;5107953;28;20431;-70
2021/06/26 11:30:27;;;;;;;25.05;20.00;;;25.90;79.70;;;;;;5109437;28;20412;-72
2021/06/26 11:32:58;;;;;;;26.10;18.55;;;25.90;80.70;;;;;;5106436;28;20427;-71
2021/06/26 11:35:32;;;;;;;24.88;19.38;;;25.80;84.10;;;;;;5110440;28;20396;-72
2021/06/26 11:37:59;;;;;;;24.48;20.48;;;25.80;82.30;;;;;;5106543;28;21332;-69
2021/06/26 11:40:28;;;;;;;26.10;19.85;;;25.80;81.40;;;;;;5109483;28;20923;-72
2021/06/26 11:42:58;;;;;;;24.08;19.08;;;25.60;81.00;;;;;;5105401;28;20765;-71
2021/06/26 11:45:27;;;;;;;25.23;19.65;;;25.60;82.90;;;;;;5107783;28;20780;-74
2021/06/26 11:48:08;;;;;;;24.23;18.45;;;25.50;83.50;;;;;;5107144;28;20501;-73
2021/06/26 11:50:36;;;;;;;24.90;19.02;;;25.50;84.70;;;;;;5109299;28;20423;-73
2021/06/26 11:53:05;;;;;;;22.13;18.58;;;25.60;82.90;;;;;;5108810;28;20427;-71
2021/06/26 11:55:37;;;;;;;23.83;19.20;;;25.70;83.30;;;;;;5108603;28;20493;-71
2021/06/26 11:58:04;;;;;;;24.48;19.85;;;25.70;82.10;;;;;;5106468;28;20908;-72
2021/06/26 12:00:31;;;;;;;25.65;20.15;;;25.80;81.30;;;;;;5109501;28;20415;-72
2021/06/26 12:02:57;;;;;;;25.83;20.90;;;25.80;80.40;;;;;;5099428;28;20427;-73
2021/06/26 12:05:26;;;;;;;25.85;20.42;;;25.90;80.70;;;;;;5108463;28;20768;-73
2021/06/26 12:08:02;;;;;;;25.63;19.83;;;25.90;80.50;;;;;;5106810;28;20424;-71
2021/06/26 12:10:29;;;;;;;23.95;19.25;;;25.90;80.20;;;;;;5107862;28;20769;-71
2021/06/26 12:12:57;;;;;;;25.08;19.75;;;25.90;80.00;;;;;;5107620;28;20428;-74
2021/06/26 12:15:24;;;;;;;26.02;19.92;;;25.90;80.70;;;;;;5108127;28;20427;-72
2021/06/26 12:18:01;;;;;;;27.83;19.77;;;25.80;79.70;;;;;;5107546;28;20423;-72
2021/06/26 12:20:34;;;;;;;17.87;15.40;;;25.80;80.90;;;;;;5109985;28;20427;-72
2021/06/26 12:23:09;;;;;;;25.33;19.55;;;25.80;82.90;;;;;;5105719;28;20479;-71
2021/06/26 12:39:37;;;;;;;24.75;19.40;;;25.80;79.70;;;;;;5582523;22;22408;-71
2021/06/26 12:42:07;;;;;;;22.77;19.00;;;25.90;80.90;;;;;;5044329;28;20487;-73
2021/06/26 12:44:34;;;;;;;24.20;19.20;;;25.90;80.20;;;;;;5045935;28;20437;-70
2021/06/26 12:47:01;;;;;;;23.92;19.45;;;25.90;80.30;;;;;;5048582;28;20508;-72